Airfield :
LOGIN :

Register | Disclaimer

   EN    FR    IT 

 










Legend :    VFR   Marginal VFR   IFR   Intensive IFR   Very Intensive IFR
Visi :
Ceiling :
>= 8 km
>= 3000ft
5 to 8 km
1000 to 3000 ft
1500m to 5 km
500 to 1000 ft
800 to 1500m
200 to 500 ft
< 800m
< 200 ft
Symbols :   Thunderstorms  Fog  Heavy snow  Heavy precipitations  Wind > 20 kt
SIGMETs :     Misc.  Thunderstorms  Icing  Turbulence  Mountain Waves  Volcanic Ashes






- Airport Elevation : 650 ft
- IATA code : ZJI


LSZL - Locarno

CURRENT METAR :
  • 161820Z AUTO 10006KT 070V140 9999NDV -RA FEW007 SCT031 BKN094 18/18 Q1015 RERA RMK

EXPIRED METARs :
  • 161750Z AUTO 27004KT 230V310 4900NDV +RA FEW027 BKN032 BKN042 18/18 Q1015 RMK
  • 161720Z AUTO 24009KT 210V280 8000NDV +RA FEW029 BKN034 19/17 Q1014 RMK
  • 161650Z AUTO 27003KT 220V360 8000NDV +RA SCT016 BKN023 19/18 Q1014 RMK
  • 161620Z AUTO 26008KT 230V290 2400NDV +RA FEW008 BKN018 BKN038 19/19 Q1014 RMK
  • 161550Z AUTO 24003KT 200V270 9999NDV FEW041 SCT059 BKN093 22/19 Q1013 RMK

TAF TAF LSZL
Valid from the 16 at 18:00 until the 17 at 03:00 UTC


161725Z 1618/1703 27003KT 8000 SCT016 BKN023
TEMPO 1618/1621 4500 SHRA SCT040TCU
PROB30
TEMPO 1618/1621 2500 TSRA SCT030CB
TEMPO 1621/1624 SHRA



MET'MAP, your aeronautical weather chart ! - Copyright ORBIFLY December 2007 - Disclaimer

ORBIFLY MET'MAP TEAM :

Programming & Development : Alexandra Zaïnal
Concept & original design : Baudouin d'Aumeries
Assistance for programming : Marc-Olivier Méhu
Technical & hardware support : Manuel Goepfert

Contact : metmap@orbifly.com




SOURCES & CREDITS :

   NOAA